Time;durP1;ratioP1;P1;durP2;ratioP2;P2;SDS_P1;SDS_P2;PMS_P1;PMS_P2;Temp;Humidity;BMP_temperature;BMP_pressure;BME280_temperature;BME280_humidity;BME280_pressure;Samples;Min_cycle;Max_cycle;Signal;HPM_P1;HPM_P2
2022/03/29 00:00:21;;;;;;;12.70;11.50;;;13.10;99.90;;;;;;1022982;29;20019;-62
2022/03/29 00:00:52;;;;;;;11.23;10.23;;;13.00;99.90;;;;;;1023005;29;20063;-62
2022/03/29 00:01:22;;;;;;;12.10;11.00;;;13.00;99.90;;;;;;1019525;29;20107;-65
2022/03/29 00:01:53;;;;;;;11.87;10.67;;;13.00;99.90;;;;;;1021796;29;20039;-62
2022/03/29 00:02:24;;;;;;;11.70;10.60;;;13.10;99.90;;;;;;1023326;28;20019;-62
2022/03/29 00:02:54;;;;;;;13.87;11.67;;;13.10;99.90;;;;;;1023357;28;20028;-61
2022/03/29 00:03:25;;;;;;;12.43;11.13;;;13.10;99.90;;;;;;1018938;28;20024;-64
2022/03/29 00:03:55;;;;;;;13.63;12.33;;;13.00;99.90;;;;;;1024906;28;20018;-63
2022/03/29 00:04:26;;;;;;;12.13;10.93;;;13.10;99.90;;;;;;1022638;29;20020;-62
2022/03/29 00:05:02;;;;;;;11.43;10.23;;;13.00;99.90;;;;;;1023177;29;20051;-63
2022/03/29 00:05:34;;;;;;;11.68;10.55;;;13.00;99.90;;;;;;1023077;29;20027;-61
2022/03/29 00:06:06;;;;;;;13.15;11.95;;;13.00;99.90;;;;;;1023321;28;20130;-61
2022/03/29 00:06:36;;;;;;;12.27;11.18;;;13.00;99.90;;;;;;1023380;28;20364;-62
2022/03/29 00:07:07;;;;;;;13.53;12.13;;;13.00;99.90;;;;;;1023395;29;20493;-62
2022/03/29 00:07:38;;;;;;;14.60;13.20;;;13.00;99.90;;;;;;1023517;28;20027;-62
2022/03/29 00:08:08;;;;;;;16.03;14.53;;;13.00;99.90;;;;;;1023225;29;20714;-61
2022/03/29 00:08:39;;;;;;;12.77;11.47;;;13.00;99.90;;;;;;1023494;29;20028;-62
2022/03/29 00:09:09;;;;;;;12.97;11.60;;;13.00;99.90;;;;;;1022588;29;20542;-63
2022/03/29 00:09:40;;;;;;;11.63;10.53;;;13.00;99.90;;;;;;1022915;29;20035;-62
2022/03/29 00:10:11;;;;;;;15.70;13.60;;;13.00;99.90;;;;;;1022932;29;20118;-62
2022/03/29 00:10:42;;;;;;;13.25;11.95;;;13.00;99.90;;;;;;1023025;29;20019;-62
2022/03/29 00:11:13;;;;;;;15.50;14.07;;;12.90;99.90;;;;;;1022969;29;20023;-62
2022/03/29 00:11:43;;;;;;;13.30;12.00;;;13.00;99.90;;;;;;1023415;29;20729;-63
2022/03/29 00:12:14;;;;;;;11.87;10.67;;;13.00;99.90;;;;;;1023247;29;21025;-62
2022/03/29 00:12:44;;;;;;;14.13;12.60;;;12.90;99.90;;;;;;1023615;29;20034;-63
2022/03/29 00:13:15;;;;;;;15.57;14.13;;;13.00;99.90;;;;;;1023262;29;20118;-62
2022/03/29 00:13:45;;;;;;;17.27;12.90;;;12.90;99.90;;;;;;1023442;29;20098;-63
2022/03/29 00:14:16;;;;;;;13.87;12.50;;;12.90;99.90;;;;;;1023231;29;20097;-62
2022/03/29 00:14:47;;;;;;;12.73;11.43;;;12.90;99.90;;;;;;1023353;29;20063;-64
2022/03/29 00:15:17;;;;;;;12.30;11.10;;;12.90;99.90;;;;;;1022815;29;20054;-62
2022/03/29 00:15:48;;;;;;;12.13;11.03;;;12.90;99.90;;;;;;1023088;29;20015;-63
2022/03/29 00:16:18;;;;;;;14.83;13.43;;;12.90;99.90;;;;;;1023005;29;20023;-61
2022/03/29 00:16:49;;;;;;;13.80;12.60;;;12.90;99.90;;;;;;1023056;29;20020;-62
2022/03/29 00:17:19;;;;;;;14.73;13.33;;;12.90;99.90;;;;;;1023271;29;20019;-62
2022/03/29 00:17:50;;;;;;;13.73;12.37;;;12.90;99.90;;;;;;1023419;29;20023;-62
2022/03/29 00:18:21;;;;;;;15.87;13.53;;;12.90;99.90;;;;;;1023284;29;20023;-61
2022/03/29 00:18:51;;;;;;;14.73;13.23;;;12.90;99.90;;;;;;1023362;29;20686;-62
2022/03/29 00:19:22;;;;;;;14.13;12.73;;;12.90;99.90;;;;;;1023330;29;20633;-62
2022/03/29 00:19:52;;;;;;;13.93;12.57;;;12.90;99.90;;;;;;1023312;29;20494;-61
2022/03/29 00:20:23;;;;;;;13.73;12.50;;;12.90;99.90;;;;;;1022961;29;20066;-62
2022/03/29 00:20:53;;;;;;;15.33;13.93;;;12.90;99.90;;;;;;1023294;29;20023;-63
2022/03/29 00:21:24;;;;;;;16.57;15.03;;;12.90;99.90;;;;;;1023343;29;20773;-62
2022/03/29 00:21:55;;;;;;;13.90;12.50;;;12.90;99.90;;;;;;1023304;29;20069;-63
2022/03/29 00:22:26;;;;;;;12.80;11.60;;;12.90;99.90;;;;;;1023112;29;20454;-63
2022/03/29 00:22:56;;;;;;;14.57;13.27;;;12.80;99.90;;;;;;1023389;29;20461;-63
2022/03/29 00:23:27;;;;;;;14.60;13.17;;;12.80;99.90;;;;;;1023294;29;20106;-62
2022/03/29 00:23:58;;;;;;;12.50;11.23;;;12.90;99.90;;;;;;1023435;29;20054;-62
2022/03/29 00:24:28;;;;;;;13.77;12.30;;;12.90;99.90;;;;;;1023318;29;20837;-63
2022/03/29 00:24:59;;;;;;;15.60;14.10;;;12.90;99.90;;;;;;1022960;29;20047;-63
2022/03/29 00:25:29;;;;;;;13.33;11.97;;;12.90;99.90;;;;;;1022783;29;20118;-63
2022/03/29 00:26:00;;;;;;;16.77;15.27;;;12.90;99.90;;;;;;1022969;29;20027;-62
2022/03/29 00:26:30;;;;;;;15.37;13.90;;;12.90;99.90;;;;;;1022906;29;20035;-62
2022/03/29 00:27:01;;;;;;;14.37;13.03;;;12.90;99.90;;;;;;1023369;29;20360;-63
2022/03/29 00:27:31;;;;;;;13.73;12.43;;;12.90;99.90;;;;;;1023177;29;20042;-62
2022/03/29 00:28:02;;;;;;;14.67;13.27;;;12.80;99.90;;;;;;1023345;29;20024;-62
2022/03/29 00:28:32;;;;;;;15.07;13.57;;;12.80;99.90;;;;;;1023254;29;20019;-63
2022/03/29 00:29:03;;;;;;;13.77;12.43;;;12.80;99.90;;;;;;1023331;29;20054;-62
2022/03/29 00:29:34;;;;;;;16.07;14.67;;;12.80;99.90;;;;;;1023287;29;20738;-63
2022/03/29 00:30:06;;;;;;;14.87;13.43;;;12.80;99.90;;;;;;1023280;29;20863;-62
2022/03/29 00:30:37;;;;;;;13.80;12.40;;;12.80;99.90;;;;;;1023380;29;20017;-61
2022/03/29 00:31:08;;;;;;;13.63;12.20;;;12.80;99.90;;;;;;1023221;29;20020;-62
2022/03/29 00:31:39;;;;;;;15.15;13.73;;;12.80;99.90;;;;;;1022992;29;20027;-65
2022/03/29 00:32:10;;;;;;;14.73;13.17;;;12.80;99.90;;;;;;1022710;29;20099;-61
2022/03/29 00:32:41;;;;;;;14.18;12.88;;;12.80;99.90;;;;;;1023061;29;20482;-63
2022/03/29 00:33:11;;;;;;;14.73;12.90;;;12.80;99.90;;;;;;1022774;29;20530;-62
2022/03/29 00:33:42;;;;;;;14.83;13.00;;;12.80;99.90;;;;;;1023509;29;20261;-61
2022/03/29 00:34:13;;;;;;;14.30;12.90;;;12.80;99.90;;;;;;1022954;29;20046;-62
2022/03/29 00:34:44;;;;;;;14.80;13.20;;;12.80;99.90;;;;;;1022945;29;20019;-62
2022/03/29 00:35:14;;;;;;;14.70;13.20;;;12.80;99.90;;;;;;1022825;29;20015;-64
2022/03/29 00:35:45;;;;;;;13.10;11.90;;;12.80;99.90;;;;;;1023122;29;20019;-62
2022/03/29 00:36:16;;;;;;;13.90;12.30;;;12.80;99.90;;;;;;1022706;29;20475;-61
2022/03/29 00:36:47;;;;;;;14.80;13.45;;;12.80;99.90;;;;;;1023363;29;20015;-63
2022/03/29 00:37:18;;;;;;;15.93;14.52;;;12.80;99.90;;;;;;1023089;29;20099;-63
2022/03/29 00:37:49;;;;;;;13.53;12.13;;;12.80;99.90;;;;;;1023366;29;20023;-64
2022/03/29 00:38:20;;;;;;;14.40;13.00;;;12.80;99.90;;;;;;1023217;29;20007;-63
2022/03/29 00:38:50;;;;;;;16.45;14.85;;;12.80;99.90;;;;;;1023235;29;20451;-63
2022/03/29 00:39:21;;;;;;;14.20;12.80;;;12.80;99.90;;;;;;1023123;29;20050;-63
2022/03/29 00:39:51;;;;;;;14.20;12.80;;;12.80;99.90;;;;;;1022875;29;20015;-63
2022/03/29 00:40:22;;;;;;;14.80;13.50;;;12.70;99.90;;;;;;1022797;29;20752;-64
2022/03/29 00:40:53;;;;;;;15.23;13.73;;;12.80;99.90;;;;;;1022857;29;20024;-64
2022/03/29 00:41:24;;;;;;;13.75;12.38;;;12.70;99.90;;;;;;1022931;29;20023;-64
2022/03/29 00:41:55;;;;;;;14.43;13.13;;;12.80;99.90;;;;;;1023207;29;20043;-63
2022/03/29 00:42:26;;;;;;;17.65;16.15;;;12.70;99.90;;;;;;1023187;29;20019;-63
2022/03/29 00:42:57;;;;;;;15.43;13.87;;;12.70;99.90;;;;;;1023411;29;20027;-63
2022/03/29 00:43:27;;;;;;;16.67;15.07;;;12.70;99.90;;;;;;1022641;29;20290;-62
2022/03/29 00:43:59;;;;;;;17.30;15.77;;;12.70;99.90;;;;;;1022981;29;20716;-63
2022/03/29 00:44:31;;;;;;;14.95;13.52;;;12.70;99.90;;;;;;1022817;29;20058;-62
2022/03/29 00:45:02;;;;;;;16.98;14.23;;;12.70;99.90;;;;;;1022790;29;20027;-63
2022/03/29 00:45:32;;;;;;;14.57;13.13;;;12.70;99.90;;;;;;1022660;29;20066;-62
2022/03/29 00:46:03;;;;;;;15.33;13.73;;;12.70;99.90;;;;;;1022949;29;20591;-61
2022/03/29 00:46:34;;;;;;;15.93;14.43;;;12.70;99.90;;;;;;1022498;29;20024;-62
2022/03/29 00:47:05;;;;;;;13.10;11.80;;;12.70;99.90;;;;;;1017782;28;20055;-62
2022/03/29 00:47:36;;;;;;;14.77;13.38;;;12.70;99.90;;;;;;1022804;28;20015;-64
2022/03/29 00:48:08;;;;;;;17.23;15.53;;;12.70;99.90;;;;;;1023235;29;20085;-63
2022/03/29 00:48:39;;;;;;;15.35;13.75;;;12.70;99.90;;;;;;1023256;29;20019;-61
2022/03/29 00:49:10;;;;;;;14.03;12.57;;;12.70;99.90;;;;;;1023178;29;20122;-62
2022/03/29 00:49:41;;;;;;;13.30;12.00;;;12.70;99.90;;;;;;1023130;29;20073;-63
2022/03/29 00:50:12;;;;;;;13.80;12.40;;;12.70;99.90;;;;;;1023006;29;20082;-62
2022/03/29 00:50:44;;;;;;;14.80;13.43;;;12.70;99.90;;;;;;1023194;29;20470;-62
2022/03/29 00:51:15;;;;;;;13.73;12.32;;;12.70;99.90;;;;;;1023033;29;20020;-62
2022/03/29 00:51:46;;;;;;;13.48;12.05;;;12.70;99.90;;;;;;1022972;29;20469;-62
2022/03/29 00:52:18;;;;;;;13.83;12.33;;;12.70;99.90;;;;;;1023133;29;20683;-62
2022/03/29 00:52:48;;;;;;;15.35;13.75;;;12.70;99.90;;;;;;1023004;29;20813;-62
2022/03/29 00:53:22;;;;;;;16.03;14.60;;;12.70;99.90;;;;;;1023225;29;20534;-62
2022/03/29 00:53:52;;;;;;;13.70;11.88;;;12.70;99.90;;;;;;1018748;29;20055;-62
2022/03/29 00:54:24;;;;;;;16.13;14.63;;;12.70;99.90;;;;;;1018668;29;20019;-62
2022/03/29 00:54:55;;;;;;;17.52;13.05;;;12.70;99.90;;;;;;1018772;29;20024;-64
2022/03/29 00:55:26;;;;;;;14.10;12.73;;;12.70;99.90;;;;;;1019240;29;20024;-64
2022/03/29 00:55:59;;;;;;;14.10;12.77;;;12.70;99.90;;;;;;1022722;29;20074;-62
2022/03/29 00:56:30;;;;;;;12.93;11.60;;;12.70;99.90;;;;;;1022405;29;20110;-62
2022/03/29 00:57:02;;;;;;;14.27;12.77;;;12.70;99.90;;;;;;1019229;29;20071;-62
2022/03/29 00:57:34;;;;;;;14.90;13.50;;;12.70;99.90;;;;;;1019149;29;20066;-61
2022/03/29 00:58:08;;;;;;;14.40;12.90;;;12.70;99.90;;;;;;1021033;29;20804;-62
2022/03/29 00:58:39;;;;;;;13.57;12.25;;;12.70;99.90;;;;;;1023407;28;20019;-63
2022/03/29 00:59:10;;;;;;;14.10;12.60;;;12.70;99.90;;;;;;1026589;28;20130;-61
2022/03/29 00:59:46;;;;;;;14.60;13.30;;;12.70;99.90;;;;;;1026860;28;20501;-61
2022/03/29 01:00:17;;;;;;;14.30;12.90;;;12.70;99.90;;;;;;1026626;28;20038;-61
2022/03/29 01:00:47;;;;;;;15.85;14.15;;;12.70;99.90;;;;;;1026055;28;20033;-62
2022/03/29 01:01:18;;;;;;;13.20;11.90;;;12.70;99.90;;;;;;1023305;28;20042;-62
2022/03/29 01:01:49;;;;;;;15.03;13.50;;;12.70;99.90;;;;;;1023181;28;20031;-61
2022/03/29 01:02:20;;;;;;;13.00;11.67;;;12.70;99.90;;;;;;1023175;28;20270;-63
2022/03/29 01:02:51;;;;;;;15.20;13.63;;;12.70;99.90;;;;;;1023159;28;20027;-62
2022/03/29 01:03:22;;;;;;;15.27;13.70;;;12.70;99.90;;;;;;1023110;28;20023;-62
2022/03/29 01:03:53;;;;;;;17.03;15.53;;;12.70;99.90;;;;;;1026824;28;20121;-61
2022/03/29 01:04:27;;;;;;;16.45;14.90;;;12.70;99.90;;;;;;1026495;28;20029;-62
2022/03/29 01:04:58;;;;;;;14.65;13.25;;;12.70;99.90;;;;;;1026347;28;20102;-62
2022/03/29 01:05:29;;;;;;;13.80;12.50;;;12.60;99.90;;;;;;1025946;28;20042;-62
2022/03/29 01:06:00;;;;;;;16.38;14.77;;;12.60;99.90;;;;;;1023058;29;20489;-63
2022/03/29 01:06:30;;;;;;;16.60;15.10;;;12.70;99.90;;;;;;1023037;29;20447;-61
2022/03/29 01:07:01;;;;;;;16.80;15.17;;;12.70;99.90;;;;;;1023234;29;20031;-62
2022/03/29 01:07:31;;;;;;;15.73;14.13;;;12.60;99.90;;;;;;1023012;29;20467;-61
2022/03/29 01:08:03;;;;;;;15.57;14.00;;;12.60;99.90;;;;;;1023370;29;20031;-63
2022/03/29 01:08:35;;;;;;;15.10;13.60;;;12.60;99.90;;;;;;1023057;29;20051;-63
2022/03/29 01:09:05;;;;;;;15.77;14.13;;;12.60;99.90;;;;;;1023032;29;20033;-64
2022/03/29 01:09:36;;;;;;;15.97;14.37;;;12.60;99.90;;;;;;1023247;29;20098;-63
2022/03/29 01:10:07;;;;;;;15.93;14.43;;;12.60;99.90;;;;;;1023017;29;20023;-62
2022/03/29 01:10:38;;;;;;;15.07;13.57;;;12.60;99.90;;;;;;1023083;29;20007;-62
2022/03/29 01:11:12;;;;;;;16.13;14.47;;;12.60;99.90;;;;;;1023208;29;20046;-63
2022/03/29 01:11:43;;;;;;;16.15;14.65;;;12.60;99.90;;;;;;1023176;29;20093;-62
2022/03/29 01:12:15;;;;;;;15.98;14.38;;;12.60;99.90;;;;;;1022992;29;20077;-63
2022/03/29 01:12:46;;;;;;;13.90;12.55;;;12.60;99.90;;;;;;1023128;29;20190;-63
2022/03/29 01:13:19;;;;;;;16.73;15.02;;;12.60;99.90;;;;;;1023141;29;20419;-63
2022/03/29 01:13:49;;;;;;;15.63;14.13;;;12.60;99.90;;;;;;1022554;29;20022;-63
2022/03/29 01:14:21;;;;;;;15.83;14.20;;;12.60;99.90;;;;;;1022817;29;20077;-62
2022/03/29 01:14:52;;;;;;;17.42;15.73;;;12.60;99.90;;;;;;1022732;29;20082;-63
2022/03/29 01:15:24;;;;;;;16.30;14.70;;;12.60;99.90;;;;;;1022784;29;20008;-62
2022/03/29 01:15:55;;;;;;;15.30;13.77;;;12.60;99.90;;;;;;1022998;29;20015;-62
2022/03/29 01:18:06;;;;;;;15.07;13.55;;;12.60;99.90;;;;;;1022674;29;20086;-63
2022/03/29 01:18:36;;;;;;;15.02;13.52;;;12.60;99.90;;;;;;1023264;29;20022;-62
2022/03/29 01:19:12;;;;;;;15.07;13.53;;;12.60;99.90;;;;;;1023028;29;20019;-63
2022/03/29 01:19:43;;;;;;;14.65;13.18;;;12.60;99.90;;;;;;1023111;29;20016;-63
2022/03/29 01:20:18;;;;;;;14.63;13.23;;;12.60;99.90;;;;;;1023001;29;20027;-62
2022/03/29 01:20:54;;;;;;;15.93;13.95;;;12.60;99.90;;;;;;1023156;29;20019;-63
2022/03/29 01:21:31;;;;;;;15.77;14.38;;;12.60;99.90;;;;;;1022992;29;20011;-63
2022/03/29 01:22:05;;;;;;;14.98;13.48;;;12.60;99.90;;;;;;1023234;29;20015;-62
2022/03/29 01:22:40;;;;;;;18.20;16.50;;;12.60;99.90;;;;;;1023040;29;20019;-62
2022/03/29 01:23:11;;;;;;;16.02;14.43;;;12.60;99.90;;;;;;1023155;29;20561;-62
2022/03/29 01:23:47;;;;;;;16.38;14.90;;;12.60;99.90;;;;;;1023187;29;20030;-62
2022/03/29 01:24:18;;;;;;;18.17;16.48;;;12.60;99.90;;;;;;1023055;29;20015;-62
2022/03/29 01:24:51;;;;;;;16.40;14.85;;;12.50;99.90;;;;;;1023251;29;20352;-62
2022/03/29 01:25:28;;;;;;;17.13;15.63;;;12.50;99.90;;;;;;1022603;29;20801;-62
2022/03/29 01:25:59;;;;;;;14.57;13.27;;;12.50;99.90;;;;;;1022942;29;20023;-68
2022/03/29 01:26:31;;;;;;;16.20;14.60;;;12.50;99.90;;;;;;1022756;29;20690;-62
2022/03/29 01:27:04;;;;;;;16.25;14.73;;;12.50;99.90;;;;;;1022924;29;20558;-62
2022/03/29 01:27:36;;;;;;;15.07;13.57;;;12.50;99.90;;;;;;1022972;29;20019;-62
2022/03/29 01:28:06;;;;;;;16.00;14.40;;;12.50;99.90;;;;;;1023100;29;20011;-62
2022/03/29 01:28:38;;;;;;;14.43;13.03;;;12.50;99.90;;;;;;1023133;29;20019;-63
2022/03/29 01:29:09;;;;;;;15.48;13.98;;;12.50;99.90;;;;;;1022998;29;20023;-63
2022/03/29 01:29:40;;;;;;;17.70;16.00;;;12.50;99.90;;;;;;1023096;29;20123;-62
2022/03/29 01:30:11;;;;;;;18.33;16.73;;;12.50;99.90;;;;;;1022416;29;20090;-63
2022/03/29 01:30:43;;;;;;;14.98;13.48;;;12.50;99.90;;;;;;1022812;29;20032;-63
2022/03/29 01:31:14;;;;;;;15.68;14.13;;;12.50;99.90;;;;;;1022725;29;20023;-63
2022/03/29 01:31:44;;;;;;;14.57;13.10;;;12.50;99.90;;;;;;1022735;29;20050;-63
2022/03/29 01:32:16;;;;;;;17.03;15.17;;;12.50;99.90;;;;;;1022955;29;20078;-61
2022/03/29 01:32:49;;;;;;;18.80;17.10;;;12.50;99.90;;;;;;1022837;28;20055;-61
2022/03/29 01:33:20;;;;;;;15.13;13.55;;;12.50;99.90;;;;;;1023130;29;20106;-61
2022/03/29 01:33:51;;;;;;;17.63;13.90;;;12.50;99.90;;;;;;1022846;29;20019;-62
2022/03/29 01:34:22;;;;;;;15.47;13.97;;;12.50;99.90;;;;;;1023178;29;20097;-61
2022/03/29 01:34:52;;;;;;;15.87;14.27;;;12.50;99.90;;;;;;1022482;29;20677;-64
2022/03/29 01:35:24;;;;;;;15.67;14.10;;;12.50;99.90;;;;;;1018666;29;20024;-63
2022/03/29 01:35:55;;;;;;;15.73;14.15;;;12.50;99.90;;;;;;1018607;29;20023;-62
2022/03/29 01:36:27;;;;;;;14.50;13.00;;;12.50;99.90;;;;;;1019144;29;20023;-65
2022/03/29 01:36:58;;;;;;;15.00;13.60;;;12.50;99.90;;;;;;1022677;29;20497;-63
2022/03/29 01:37:28;;;;;;;15.73;14.13;;;12.50;99.90;;;;;;1023124;29;20748;-63
2022/03/29 01:37:59;;;;;;;15.27;13.77;;;12.50;99.90;;;;;;1023086;29;20020;-61
2022/03/29 01:38:29;;;;;;;16.50;14.80;;;12.50;99.90;;;;;;1022958;29;20118;-65
2022/03/29 01:39:00;;;;;;;16.23;14.60;;;12.50;99.90;;;;;;1022786;29;20026;-62
2022/03/29 01:39:32;;;;;;;15.10;13.57;;;12.50;99.90;;;;;;1022653;29;20383;-62
2022/03/29 01:40:08;;;;;;;16.50;14.80;;;12.50;99.90;;;;;;1022648;29;20106;-62
2022/03/29 01:40:39;;;;;;;14.07;12.65;;;12.50;99.90;;;;;;1022724;29;20078;-64
2022/03/29 01:41:10;;;;;;;16.23;14.63;;;12.50;99.90;;;;;;1022356;29;20023;-61
2022/03/29 01:41:41;;;;;;;14.52;13.07;;;12.50;99.90;;;;;;1023058;29;20019;-63
2022/03/29 01:42:11;;;;;;;18.47;16.87;;;12.50;99.90;;;;;;1022465;29;20031;-63
2022/03/29 01:42:59;;;;;;;17.70;15.40;;;12.50;99.90;;;;;;1022873;29;20058;-63
2022/03/29 01:43:30;;;;;;;15.32;13.80;;;12.50;99.90;;;;;;1020100;28;20088;-64
2022/03/29 01:44:01;;;;;;;15.50;14.10;;;12.50;99.90;;;;;;1022532;29;20023;-62
2022/03/29 01:44:32;;;;;;;15.47;13.97;;;12.50;99.90;;;;;;1022923;29;20505;-63
2022/03/29 01:45:03;;;;;;;14.13;12.73;;;12.50;99.90;;;;;;1022942;29;20118;-63
2022/03/29 01:45:34;;;;;;;15.43;13.07;;;12.50;99.90;;;;;;1022802;29;20027;-64
2022/03/29 01:46:07;;;;;;;15.90;14.37;;;12.50;99.90;;;;;;1023129;28;20023;-62
2022/03/29 01:46:38;;;;;;;17.23;14.60;;;12.50;99.90;;;;;;1022847;28;20098;-61
2022/03/29 01:47:08;;;;;;;15.57;14.00;;;12.50;99.90;;;;;;1023081;28;20023;-62
2022/03/29 01:47:39;;;;;;;19.13;15.10;;;12.50;99.90;;;;;;1023058;28;20125;-63
2022/03/29 01:48:09;;;;;;;16.00;14.53;;;12.40;99.90;;;;;;1022946;28;20023;-63
2022/03/29 01:48:40;;;;;;;15.57;13.87;;;12.50;99.90;;;;;;1023097;28;20019;-63
2022/03/29 01:49:10;;;;;;;16.50;14.90;;;12.50;99.90;;;;;;1023008;28;20019;-63
2022/03/29 01:49:41;;;;;;;16.73;15.13;;;12.50;99.90;;;;;;1022973;28;20500;-61
2022/03/29 01:50:12;;;;;;;17.50;15.40;;;12.40;99.90;;;;;;1022828;28;20122;-64
2022/03/29 01:50:43;;;;;;;16.52;14.82;;;12.50;99.90;;;;;;1022931;28;20106;-63
2022/03/29 01:51:13;;;;;;;16.87;14.43;;;12.40;99.90;;;;;;1023045;29;20027;-62
2022/03/29 01:51:44;;;;;;;17.73;16.03;;;12.40;99.90;;;;;;1022998;29;20023;-63
2022/03/29 01:52:15;;;;;;;16.23;14.53;;;12.40;99.90;;;;;;1022931;29;20019;-63
2022/03/29 01:52:46;;;;;;;17.17;15.57;;;12.40;99.90;;;;;;1022720;29;20055;-63
2022/03/29 01:53:25;;;;;;;15.35;13.75;;;12.40;99.90;;;;;;1022935;29;20019;-64
2022/03/29 01:53:57;;;;;;;15.55;13.95;;;12.40;99.90;;;;;;1022793;28;20077;-62
2022/03/29 01:54:29;;;;;;;16.63;14.73;;;12.40;99.90;;;;;;1022284;29;20034;-62
2022/03/29 01:54:59;;;;;;;15.65;14.15;;;12.40;99.90;;;;;;1026513;28;20097;-64
2022/03/29 01:55:30;;;;;;;17.70;15.90;;;12.40;99.90;;;;;;1022382;29;20042;-61
2022/03/29 01:56:01;;;;;;;16.97;15.27;;;12.50;99.90;;;;;;1022546;29;20083;-63
2022/03/29 01:56:34;;;;;;;17.92;15.63;;;12.40;99.90;;;;;;1022682;29;20701;-61
2022/03/29 01:57:04;;;;;;;17.17;15.48;;;12.40;99.90;;;;;;1022454;29;20102;-61
2022/03/29 01:57:36;;;;;;;15.53;13.93;;;12.40;99.90;;;;;;1023155;28;20027;-63
2022/03/29 01:58:06;;;;;;;15.32;13.75;;;12.50;99.90;;;;;;1022669;28;20023;-63
2022/03/29 01:58:37;;;;;;;15.30;13.80;;;12.50;99.90;;;;;;1023034;28;20023;-62
2022/03/29 01:59:11;;;;;;;14.63;13.20;;;12.50;99.90;;;;;;1022847;28;20030;-63
2022/03/29 02:00:30;;;;;;;15.98;14.45;;;12.50;99.90;;;;;;1022975;29;20557;-64
2022/03/29 02:01:01;;;;;;;14.90;13.30;;;12.50;99.90;;;;;;1023036;28;20562;-64
2022/03/29 02:01:41;;;;;;;14.83;13.30;;;12.50;99.90;;;;;;1022906;28;20474;-62
2022/03/29 02:02:12;;;;;;;16.25;14.43;;;12.50;99.90;;;;;;1022820;28;20034;-62
2022/03/29 02:02:43;;;;;;;16.85;15.20;;;12.50;99.90;;;;;;1022934;28;20130;-62
2022/03/29 02:03:13;;;;;;;17.53;15.93;;;12.50;99.90;;;;;;1022706;29;20038;-62
2022/03/29 02:03:44;;;;;;;16.00;14.47;;;12.50;99.90;;;;;;1023081;29;20436;-63
2022/03/29 02:04:16;;;;;;;14.60;13.17;;;12.50;99.90;;;;;;1022747;29;20549;-66
2022/03/29 02:04:46;;;;;;;14.57;13.18;;;12.50;99.90;;;;;;1022731;28;20031;-61
2022/03/29 02:05:18;;;;;;;16.67;14.97;;;12.50;99.90;;;;;;1022863;29;20035;-65
2022/03/29 02:05:49;;;;;;;15.32;13.88;;;12.50;99.90;;;;;;1022813;29;20085;-63
2022/03/29 02:06:20;;;;;;;14.00;12.57;;;12.50;99.90;;;;;;1022833;29;20027;-63
2022/03/29 02:06:51;;;;;;;17.27;15.80;;;12.50;99.90;;;;;;1022904;29;20030;-63
2022/03/29 02:07:23;;;;;;;15.30;13.80;;;12.50;99.90;;;;;;1023012;29;20027;-64
2022/03/29 02:07:53;;;;;;;14.82;13.32;;;12.50;99.90;;;;;;1022910;29;20023;-62
2022/03/29 02:08:24;;;;;;;14.43;13.03;;;12.50;99.90;;;;;;1022918;29;20055;-63
2022/03/29 02:08:57;;;;;;;14.23;12.80;;;12.50;99.90;;;;;;1022715;29;20023;-62
2022/03/29 02:09:28;;;;;;;17.58;15.98;;;12.50;99.90;;;;;;1022447;29;20035;-63
2022/03/29 02:09:58;;;;;;;16.60;14.90;;;12.50;99.90;;;;;;1022457;29;20034;-63
2022/03/29 02:10:29;;;;;;;15.03;13.57;;;12.50;99.90;;;;;;1018451;29;20118;-63
2022/03/29 02:11:00;;;;;;;17.27;15.73;;;12.50;99.90;;;;;;1018777;29;20015;-63
2022/03/29 02:11:31;;;;;;;16.02;14.15;;;12.40;99.90;;;;;;1022629;29;20015;-62
2022/03/29 02:12:03;;;;;;;14.85;13.35;;;12.40;99.90;;;;;;1022449;29;20060;-61
2022/03/29 02:12:33;;;;;;;15.57;14.00;;;12.40;99.90;;;;;;1023045;29;20034;-62
2022/03/29 02:13:04;;;;;;;15.63;14.13;;;12.40;99.90;;;;;;1021758;29;20022;-61
2022/03/29 02:13:35;;;;;;;15.23;13.70;;;12.40;99.90;;;;;;1022617;29;20542;-61
2022/03/29 02:14:06;;;;;;;14.37;12.93;;;12.40;99.90;;;;;;1022304;29;20502;-63
2022/03/29 02:14:37;;;;;;;15.83;13.40;;;12.40;99.90;;;;;;1022803;29;20046;-62
2022/03/29 02:15:08;;;;;;;15.70;14.20;;;12.40;99.90;;;;;;1022641;29;20026;-63
2022/03/29 02:15:39;;;;;;;16.17;14.57;;;12.40;99.90;;;;;;1023082;29;20014;-61
2022/03/29 02:16:10;;;;;;;16.33;14.82;;;12.40;99.90;;;;;;1022713;28;20015;-62
2022/03/29 02:16:40;;;;;;;15.73;14.20;;;12.40;99.90;;;;;;1022551;29;20043;-63
2022/03/29 02:17:11;;;;;;;17.13;15.43;;;12.40;99.90;;;;;;1022310;29;20011;-62
2022/03/29 02:17:43;;;;;;;16.80;15.30;;;12.40;99.90;;;;;;1022847;29;20029;-61
2022/03/29 02:18:14;;;;;;;16.85;14.82;;;12.40;99.90;;;;;;1022565;29;20015;-62
2022/03/29 02:18:44;;;;;;;15.03;13.63;;;12.40;99.90;;;;;;1022999;29;20151;-63
2022/03/29 02:19:15;;;;;;;17.20;15.60;;;12.30;99.90;;;;;;1022675;29;20118;-63
2022/03/29 02:19:46;;;;;;;17.27;15.68;;;12.40;99.90;;;;;;1022745;29;20074;-63
2022/03/29 02:20:18;;;;;;;14.52;13.02;;;12.40;99.90;;;;;;1022301;29;20015;-62
2022/03/29 02:20:48;;;;;;;16.52;14.82;;;12.40;99.90;;;;;;1022403;29;20336;-61
2022/03/29 02:21:19;;;;;;;15.73;14.23;;;12.40;99.90;;;;;;1022493;29;20530;-61
2022/03/29 02:21:49;;;;;;;15.80;14.20;;;12.40;99.90;;;;;;1022551;29;20700;-62
2022/03/29 02:22:20;;;;;;;14.37;13.03;;;12.30;99.90;;;;;;1022913;29;20015;-62
2022/03/29 02:22:50;;;;;;;14.53;13.03;;;12.30;99.90;;;;;;1022881;29;20023;-63
2022/03/29 02:23:21;;;;;;;13.73;12.40;;;12.40;99.90;;;;;;1022351;29;20035;-65
2022/03/29 02:23:51;;;;;;;15.90;14.43;;;12.30;99.90;;;;;;1022541;29;20023;-63
2022/03/29 02:24:22;;;;;;;17.23;15.67;;;12.40;99.90;;;;;;1022406;29;20023;-62
2022/03/29 02:24:53;;;;;;;16.27;14.87;;;12.30;99.90;;;;;;1022505;29;20060;-61
2022/03/29 02:25:23;;;;;;;13.93;12.63;;;12.30;99.90;;;;;;1022791;29;20034;-61
2022/03/29 02:25:54;;;;;;;15.13;13.73;;;12.30;99.90;;;;;;1022922;29;20019;-61
2022/03/29 02:26:24;;;;;;;15.17;13.43;;;12.30;99.90;;;;;;1022973;29;20114;-63
2022/03/29 02:26:55;;;;;;;13.83;12.43;;;12.30;99.90;;;;;;1022831;29;20018;-64
2022/03/29 02:27:25;;;;;;;13.43;12.13;;;12.30;99.90;;;;;;1022738;29;20491;-64
2022/03/29 02:27:56;;;;;;;13.70;12.33;;;12.30;99.90;;;;;;1022915;29;20498;-61
2022/03/29 02:28:26;;;;;;;15.33;13.80;;;12.30;99.90;;;;;;1022812;29;20023;-63
2022/03/29 02:28:57;;;;;;;15.30;13.80;;;12.30;99.90;;;;;;1022850;29;20025;-62
2022/03/29 02:29:27;;;;;;;17.43;15.83;;;12.30;99.90;;;;;;1022736;29;20023;-61
2022/03/29 02:29:58;;;;;;;15.27;13.87;;;12.30;99.90;;;;;;1022714;29;20031;-61
2022/03/29 02:30:29;;;;;;;15.63;14.10;;;12.30;99.90;;;;;;1022939;29;20023;-64
2022/03/29 02:31:00;;;;;;;19.20;17.30;;;12.30;99.90;;;;;;1022866;29;20074;-62
2022/03/29 02:31:30;;;;;;;16.80;15.33;;;12.30;99.90;;;;;;1022832;29;20038;-63
2022/03/29 02:32:01;;;;;;;16.27;14.77;;;12.30;99.90;;;;;;1022335;29;20700;-62
2022/03/29 02:32:31;;;;;;;16.20;14.53;;;12.30;99.90;;;;;;1018602;29;20032;-61
2022/03/29 02:33:03;;;;;;;16.33;14.93;;;12.20;99.90;;;;;;1018348;29;20019;-61
2022/03/29 02:33:33;;;;;;;16.27;14.82;;;12.30;99.90;;;;;;1018937;29;20103;-62
2022/03/29 02:34:04;;;;;;;16.20;14.50;;;12.20;99.90;;;;;;1022336;29;20027;-61
2022/03/29 02:34:34;;;;;;;15.30;13.87;;;12.20;99.90;;;;;;1022807;29;20027;-62
2022/03/29 02:35:06;;;;;;;16.30;14.80;;;12.20;99.90;;;;;;1022731;29;20050;-61
2022/03/29 02:35:37;;;;;;;16.27;14.73;;;12.20;99.90;;;;;;1022906;29;20023;-63
2022/03/29 02:36:09;;;;;;;16.93;15.40;;;12.20;99.90;;;;;;1022573;29;20015;-61
2022/03/29 02:36:40;;;;;;;14.90;13.40;;;12.20;99.90;;;;;;1023027;28;20459;-63
2022/03/29 02:37:12;;;;;;;16.47;14.97;;;12.20;99.90;;;;;;1022646;29;20551;-61
2022/03/29 02:37:42;;;;;;;15.18;13.63;;;12.20;99.90;;;;;;1023051;29;20074;-63
2022/03/29 02:38:13;;;;;;;17.10;15.37;;;12.20;99.90;;;;;;1022606;29;20158;-62
2022/03/29 02:38:44;;;;;;;15.93;14.43;;;12.20;99.90;;;;;;1023028;29;20267;-61
2022/03/29 02:39:14;;;;;;;15.43;14.03;;;12.20;99.90;;;;;;1019768;29;20130;-64
2022/03/29 02:39:45;;;;;;;17.33;15.73;;;12.20;99.90;;;;;;1019057;28;20035;-63
2022/03/29 02:40:15;;;;;;;16.60;15.10;;;12.10;99.90;;;;;;1022259;29;20023;-62
2022/03/29 02:40:47;;;;;;;14.80;13.50;;;12.20;99.90;;;;;;1022779;28;20055;-62
2022/03/29 02:41:17;;;;;;;17.05;15.45;;;12.10;99.90;;;;;;1022755;29;20049;-62